Manteo, NC

1:12 PM EDT on September 30, 2016 (GMT -0400)
Dare County Regional

Weather History for KMQI - February, 2014

Change the Weather History Date:

Tuesday, February 18, 2014

  Actual Average Record
Temperature  
Mean Temperature 50 °F -  
Max Temperature 61 °F 51 °F 78 °F (1976)
Min Temperature 39 °F 37 °F 16 °F (1980)
Degree Days  
Heating Degree Days 15    
Moisture  
Dew Point 38 °F    
Average Humidity 71    
Maximum Humidity 99    
Minimum Humidity 26    
Precipitation  
Precipitation 0.00 in - - ()
Sea Level Pressure  
Sea Level Pressure 30.16 in    
Wind  
Wind Speed 8 mph (WSW)    
Max Wind Speed 14 mph    
Max Gust Speed 22 mph    
Visibility 10 miles    
Events Rain    
Averages and records for this station are not official NWS values.
T = Trace of Precipitation, MM = Missing Value Source: NWS Daily Summary

Daily Weather History Graph

Daily Weather History Graph

Search for Another Location

Airport or City:

Trip Planner

Search our weather history database for the weather conditions in past years. The results will help you decide how hot, cold, wet, or windy it might be!

Date:

Astronomy

Feb. 18, 2014 Rise Set
Actual Time 6:46 AM EST 5:47 PM EST
Civil Twilight 6:20 AM EST 6:13 PM EST
Nautical Twilight 5:50 AM EST 6:43 PM EST
Astronomical Twilight 5:20 AM EST 7:13 PM EST
Moon 9:29 PM EST (2/18) 8:25 AM EST (2/18)
Length of Visible Light 11h 52m
Length of Day
11h 00m
Waning Gibbous, 87% of the Moon is Illuminated
Feb 18
Waning Gibbous
Feb 22
Last Quarter
Mar 1
New
Mar 8
First Quarter
Mar 16
Full

Hourly Weather History & Observations

Time (EST) Temp. Windchill Dew Point Humidity Pressure Visibility Wind Dir Wind Speed Gust Speed Precip Events Conditions
12:15 AM 39.0 °F 32.8 °F 33.8 °F 82% 30.24 in 10.0 mi East 9.2 mph - N/A   Mostly Cloudy
12:35 AM 39.6 °F 33.5 °F 34.9 °F 83% 30.23 in 10.0 mi ESE 9.2 mph - N/A   Mostly Cloudy
12:55 AM 39.7 °F 33.7 °F 35.6 °F 85% 30.22 in 10.0 mi ESE 9.2 mph - N/A   Mostly Cloudy
1:15 AM 40.1 °F 34.7 °F 36.5 °F 87% 30.21 in 10.0 mi ESE 8.1 mph - N/A   Scattered Clouds
1:35 AM 40.8 °F 36.2 °F 37.4 °F 88% 30.19 in 10.0 mi ESE 6.9 mph - N/A   Clear
1:55 AM 41.5 °F 35.9 °F 38.3 °F 88% 30.18 in 10.0 mi ESE 9.2 mph - N/A   Clear
2:15 AM 42.4 °F 37.0 °F 38.7 °F 86% 30.16 in 10.0 mi SE 9.2 mph - N/A   Mostly Cloudy
2:35 AM 44.1 °F 39.0 °F 40.1 °F 86% 30.16 in 10.0 mi SE 9.2 mph - N/A   Overcast
2:55 AM 46.4 °F 42.4 °F 41.4 °F 83% 30.15 in 10.0 mi SSE 8.1 mph - N/A   Overcast
3:15 AM 48.4 °F - 43.5 °F 83% 30.14 in 10.0 mi South 13.8 mph - N/A   Overcast
3:35 AM 49.1 °F - 44.2 °F 83% 30.15 in 10.0 mi South 12.7 mph 19.6 mph N/A   Overcast
3:55 AM 47.8 °F - 43.9 °F 86% 30.15 in 10.0 mi South 10.4 mph - N/A Rain Rain
4:15 AM 48.2 °F - 44.2 °F 86% 30.13 in 10.0 mi South 13.8 mph 19.6 mph N/A   Overcast
4:35 AM 47.8 °F - 44.6 °F 89% 30.11 in 10.0 mi South 13.8 mph 21.9 mph N/A   Overcast
4:55 AM 48.9 °F - 45.5 °F 88% 30.11 in 10.0 mi South 13.8 mph 21.9 mph N/A   Overcast
5:15 AM 48.6 °F - 45.5 °F 89% 30.11 in 10.0 mi South 13.8 mph 20.7 mph N/A   Overcast
5:35 AM 48.2 °F - 45.9 °F 92% 30.11 in 10.0 mi South 13.8 mph 20.7 mph N/A   Overcast
5:55 AM 47.5 °F - 45.7 °F 93% 30.09 in 10.0 mi South 12.7 mph - N/A   Overcast
6:15 AM 46.8 °F - 45.5 °F 95% 30.10 in 10.0 mi SSW 10.4 mph - N/A   Overcast
6:35 AM 44.6 °F 40.7 °F 43.9 °F 97% 30.11 in 7.0 mi SW 6.9 mph - N/A   Overcast
6:55 AM 44.6 °F 40.2 °F 43.9 °F 97% 30.11 in 7.0 mi SSW 8.1 mph - N/A   Overcast
7:15 AM 47.7 °F - 47.3 °F 99% 30.11 in 7.0 mi SSW 11.5 mph - N/A   Overcast
7:35 AM 45.9 °F 44.6 °F 45.3 °F 98% 30.13 in 5.0 mi WSW 3.5 mph - N/A   Overcast
7:55 AM 42.4 °F 36.1 °F 40.8 °F 94% 30.15 in 10.0 mi NW 11.5 mph 19.6 mph N/A   Mostly Cloudy
8:15 AM 41.2 °F 36.6 °F 39.2 °F 93% 30.16 in 10.0 mi NW 6.9 mph - N/A   Overcast
8:35 AM 42.1 °F 38.4 °F 39.4 °F 90% 30.17 in 10.0 mi NW 5.8 mph - N/A   Overcast
8:55 AM 40.3 °F 33.4 °F 37.8 °F 91% 30.19 in 10.0 mi NNW 11.5 mph 19.6 mph N/A   Overcast
9:15 AM 39.7 °F 31.9 °F 37.4 °F 91% 30.21 in 10.0 mi NW 13.8 mph 20.7 mph N/A   Overcast
9:35 AM 39.6 °F 33.0 °F 37.0 °F 91% 30.22 in 10.0 mi NW 10.4 mph - N/A   Overcast
9:55 AM 40.5 °F 34.6 °F 37.2 °F 88% 30.21 in 10.0 mi NNW 9.2 mph - N/A   Overcast
10:15 AM 42.4 °F 37.5 °F 38.3 °F 85% 30.20 in 10.0 mi West 8.1 mph - N/A   Overcast
10:35 AM 44.8 °F 39.9 °F 39.4 °F 81% 30.20 in 10.0 mi WNW 9.2 mph - N/A   Scattered Clouds
10:55 AM 47.3 °F - 40.8 °F 78% 30.19 in 10.0 mi WNW 6.9 mph - N/A   Clear
11:15 AM 49.1 °F - 40.3 °F 72% 30.18 in 10.0 mi WNW 10.4 mph 16.1 mph N/A   Clear
11:35 AM 50.7 °F - 40.1 °F 67% 30.18 in 10.0 mi WNW 10.4 mph 17.3 mph N/A   Clear
11:55 AM 51.3 °F - 39.6 °F 64% 30.18 in 10.0 mi WNW 9.2 mph - N/A   Clear
12:15 PM 52.7 °F - 37.6 °F 56% 30.16 in 10.0 mi WNW 11.5 mph 18.4 mph N/A   Clear
12:35 PM 54.3 °F - 36.3 °F 51% 30.16 in 10.0 mi WNW 10.4 mph - N/A   Clear
12:55 PM 54.9 °F - 35.1 °F 47% 30.15 in 10.0 mi WNW 11.5 mph 17.3 mph N/A   Clear
1:15 PM 56.7 °F - 34.3 °F 43% 30.14 in 10.0 mi WNW 10.4 mph 16.1 mph N/A   Clear
1:35 PM 57.4 °F - 33.1 °F 40% 30.13 in 10.0 mi WNW 9.2 mph 16.1 mph N/A   Clear
1:55 PM 57.0 °F - 32.2 °F 39% 30.13 in 10.0 mi NW 11.5 mph 17.3 mph N/A   Clear
2:15 PM 58.6 °F - 31.6 °F 36% 30.12 in 10.0 mi WNW 8.1 mph - N/A   Clear
2:35 PM 59.7 °F - 29.8 °F 32% 30.11 in 10.0 mi WNW 8.1 mph - N/A   Clear
2:55 PM 61.2 °F - 28.0 °F 28% 30.11 in 10.0 mi NW 8.1 mph - N/A   Clear
3:15 PM 61.2 °F - 26.2 °F 26% 30.12 in 10.0 mi NW 9.2 mph - N/A   Clear
3:35 PM 60.8 °F - 28.4 °F 29% 30.12 in 10.0 mi NW 3.5 mph - N/A   Clear
3:55 PM 61.2 °F - 27.5 °F 28% 30.12 in 10.0 mi NW 4.6 mph - N/A   Clear
4:15 PM 61.7 °F - 28.6 °F 29% 30.12 in 10.0 mi WNW 5.8 mph - N/A   Clear
4:35 PM 55.4 °F - 32.4 °F 42% 30.12 in 10.0 mi Calm Calm - N/A   Clear
4:55 PM 58.1 °F - 32.0 °F 37% 30.12 in 10.0 mi Calm Calm - N/A   Clear
5:15 PM 57.4 °F - 31.5 °F 37% 30.13 in 10.0 mi WNW 3.5 mph - N/A   Clear
5:35 PM 57.2 °F - 30.9 °F 37% 30.14 in 10.0 mi Calm Calm - N/A   Clear
5:55 PM 51.3 °F - 33.4 °F 51% 30.14 in 10.0 mi Calm Calm - N/A   Clear
6:15 PM 50.7 °F - 34.7 °F 54% 30.16 in 10.0 mi Calm Calm - N/A   Clear
6:35 PM 48.0 °F - 35.8 °F 63% 30.16 in 10.0 mi Calm Calm - N/A   Clear
6:55 PM 45.9 °F - 35.8 °F 68% 30.17 in 10.0 mi Calm Calm - N/A   Clear
7:15 PM 44.1 °F - 35.4 °F 72% 30.17 in 10.0 mi Calm Calm - N/A   Clear
7:35 PM 45.9 °F - 35.6 °F 67% 30.18 in 10.0 mi Calm Calm - N/A   Clear
7:55 PM 44.1 °F - 35.1 °F 71% 30.18 in 10.0 mi Calm Calm - N/A   Clear
8:15 PM 45.1 °F - 34.7 °F 67% 30.18 in 10.0 mi Calm Calm - N/A   Clear
8:35 PM 45.7 °F - 35.8 °F 68% 30.18 in 10.0 mi Calm Calm - N/A   Clear
8:55 PM 46.4 °F 44.3 °F 37.6 °F 71% 30.18 in 10.0 mi South 4.6 mph - N/A   Clear
9:15 PM 45.5 °F 44.2 °F 37.8 °F 74% 30.17 in 10.0 mi SSW 3.5 mph - N/A   Clear
9:35 PM 45.5 °F - 37.8 °F 74% 30.18 in 10.0 mi Calm Calm - N/A   Clear
9:55 PM 44.8 °F 43.3 °F 38.7 °F 79% 30.18 in 10.0 mi South 3.5 mph - N/A   Clear
10:15 PM 44.6 °F 43.1 °F 37.8 °F 77% 30.18 in 10.0 mi SSW 3.5 mph - N/A   Clear
10:35 PM 44.1 °F 41.5 °F 37.4 °F 77% 30.18 in 10.0 mi SW 4.6 mph - N/A   Clear
10:55 PM 44.4 °F - 37.0 °F 75% 30.17 in 10.0 mi Calm Calm - N/A   Clear
11:15 PM 44.2 °F - 37.4 °F 77% 30.16 in 10.0 mi Calm Calm - N/A   Clear
11:35 PM 43.2 °F - 37.8 °F 81% 30.16 in 10.0 mi Calm Calm - N/A   Clear
11:55 PM 43.3 °F - 37.9 °F 81% 30.16 in 10.0 mi Calm Calm - N/A   Clear